createdAt,value
2018-01-20T00:00:51.126Z,992.0171
2018-01-20T00:01:52.146Z,992.0511
2018-01-20T00:02:51.048Z,992.0086
2018-01-20T00:03:51.598Z,992.0472
2018-01-20T00:04:51.309Z,992.0388
2018-01-20T00:05:51.246Z,991.9708
2018-01-20T00:06:50.993Z,991.9702
2018-01-20T00:07:51.389Z,991.9631
2018-01-20T00:08:51.406Z,991.988
2018-01-20T00:09:54.293Z,992.0195
2018-01-20T00:10:50.913Z,992.0112
2018-01-20T00:11:50.949Z,991.9874
2018-01-20T00:12:51.162Z,992.0226
2018-01-20T00:13:51.223Z,992.0711
2018-01-20T00:14:50.989Z,992.0465
2018-01-20T00:15:51.210Z,992.0929
2018-01-20T00:16:51.308Z,992.0576
2018-01-20T00:17:50.994Z,992.0901
2018-01-20T00:18:51.230Z,992.0809
2018-01-20T00:19:51.302Z,992.1005
2018-01-20T00:20:51.232Z,992.087
2018-01-20T00:21:51.322Z,992.1385
2018-01-20T00:22:51.125Z,992.0787
2018-01-20T00:23:51.536Z,992.0845
2018-01-20T00:24:51.166Z,992.063
2018-01-20T00:25:51.605Z,992.0818
2018-01-20T00:26:51.091Z,992.0778
2018-01-20T00:27:51.261Z,992.0787
2018-01-20T00:28:51.656Z,992.087
2018-01-20T00:29:51.213Z,992.0715
2018-01-20T00:30:51.170Z,992.0726
2018-01-20T00:31:51.185Z,992.0569
2018-01-20T00:32:51.251Z,992.059
2018-01-20T00:33:51.111Z,992.0574
2018-01-20T00:34:51.586Z,992.0673
2018-01-20T00:35:51.395Z,992.0621
2018-01-20T00:36:51.472Z,992.0441
2018-01-20T00:37:51.117Z,992.0929
2018-01-20T00:38:51.420Z,992.0538
2018-01-20T00:39:51.179Z,992.0165
2018-01-20T00:40:53.991Z,992.0268
2018-01-20T00:41:51.149Z,992.0254
2018-01-20T00:42:51.166Z,992.0373
2018-01-20T00:43:51.608Z,992.0373
2018-01-20T00:44:52.337Z,991.9833
2018-01-20T00:45:51.451Z,992.0497
2018-01-20T00:46:51.159Z,992.0154
2018-01-20T00:47:51.198Z,992.0352
2018-01-20T00:48:51.632Z,992.0839
2018-01-20T00:49:54.093Z,992.0746
2018-01-20T00:50:51.184Z,992.1495
2018-01-20T00:51:51.465Z,992.1638
2018-01-20T00:52:53.842Z,992.1
2018-01-20T00:53:51.602Z,992.1301
2018-01-20T00:54:51.265Z,992.0965
2018-01-20T00:55:51.232Z,992.0809
2018-01-20T00:56:51.058Z,992.0948
2018-01-20T00:57:51.006Z,992.082
2018-01-20T00:58:51.048Z,992.0429
2018-01-20T00:59:51.091Z,992.0233
2018-01-20T01:00:50.969Z,992.0356
2018-01-20T01:01:51.082Z,992.0684
2018-01-20T01:02:57.113Z,992.0881
2018-01-20T01:03:51.257Z,992.0507
2018-01-20T01:04:52.238Z,992.0517
2018-01-20T01:05:51.289Z,992.0404
2018-01-20T01:06:51.103Z,992.0554
2018-01-20T01:07:51.439Z,992.0813
2018-01-20T01:08:51.216Z,992.0082
2018-01-20T01:09:51.307Z,992.0029
2018-01-20T01:10:52.278Z,992.0042
2018-01-20T01:11:52.133Z,991.9651
2018-01-20T01:12:51.282Z,992.046
2018-01-20T01:13:51.027Z,992.0709
2018-01-20T01:14:51.101Z,991.9989
2018-01-20T01:15:51.262Z,992.0227
2018-01-20T01:16:52.848Z,991.9713
2018-01-20T01:17:51.185Z,992.0025
2018-01-20T01:18:51.181Z,991.9319
2018-01-20T01:19:51.360Z,991.9941
2018-01-20T01:20:51.360Z,991.9563
2018-01-20T01:21:51.367Z,992.0673
2018-01-20T01:22:51.481Z,992.0093
2018-01-20T01:23:51.069Z,992.0356
2018-01-20T01:24:51.741Z,992.0529
2018-01-20T01:25:51.184Z,992.0326
2018-01-20T01:26:51.538Z,992.0309
2018-01-20T01:27:51.487Z,991.9988
2018-01-20T01:28:51.221Z,991.9875
2018-01-20T01:29:51.211Z,992.016
2018-01-20T01:30:51.653Z,991.9988
2018-01-20T01:31:51.203Z,992.0092
2018-01-20T01:32:51.403Z,992.0337
2018-01-20T01:33:51.223Z,992.0309
2018-01-20T01:34:54.503Z,992.0025
2018-01-20T01:35:51.347Z,992.0078
2018-01-20T01:36:51.222Z,992.0408
2018-01-20T01:37:51.356Z,992.0263
2018-01-20T01:38:51.594Z,992.087
2018-01-20T01:39:51.061Z,992.0465
2018-01-20T01:40:51.536Z,992.0067
2018-01-20T01:41:52.373Z,992.0046
2018-01-20T01:42:51.773Z,992.0025
2018-01-20T01:43:51.975Z,992.0203
2018-01-20T01:44:51.316Z,992.0212
2018-01-20T01:45:51.128Z,992.0527
2018-01-20T01:46:51.197Z,992.0048
2018-01-20T01:47:51.270Z,992.0626
2018-01-20T01:48:51.476Z,992.0347
2018-01-20T01:49:51.428Z,992.0067
2018-01-20T01:50:51.188Z,992.0203
2018-01-20T01:51:51.634Z,992.0263
2018-01-20T01:52:51.149Z,992.0337
2018-01-20T01:53:51.217Z,992.0123
2018-01-20T01:54:51.067Z,992.072
2018-01-20T01:55:51.039Z,992.0351
2018-01-20T01:56:51.439Z,991.9904
2018-01-20T01:57:51.807Z,992.0112
2018-01-20T01:58:52.369Z,991.9521
2018-01-20T01:59:51.436Z,991.9677
2018-01-20T02:00:52.719Z,991.9995
2018-01-20T02:01:51.524Z,991.9828
2018-01-20T02:02:51.515Z,991.9425
2018-01-20T02:03:51.668Z,991.9252
2018-01-20T02:04:51.140Z,991.9149
2018-01-20T02:05:51.189Z,991.9395
2018-01-20T02:06:51.246Z,991.9207
2018-01-20T02:07:51.567Z,991.9542
2018-01-20T02:08:51.339Z,991.9402
2018-01-20T02:09:51.533Z,991.9258
2018-01-20T02:10:51.200Z,991.9095
2018-01-20T02:11:55.049Z,991.8976
2018-01-20T02:12:51.382Z,991.9695
2018-01-20T02:13:51.307Z,991.9342
2018-01-20T02:14:51.464Z,991.9137
2018-01-20T02:15:51.256Z,991.9407
2018-01-20T02:16:51.266Z,991.9738
2018-01-20T02:17:51.829Z,991.9926
2018-01-20T02:18:51.572Z,991.9718
2018-01-20T02:19:51.220Z,991.95
2018-01-20T02:20:51.336Z,991.9625
2018-01-20T02:21:51.235Z,991.9178
2018-01-20T02:22:51.361Z,991.9351
2018-01-20T02:23:51.140Z,991.9852
2018-01-20T02:24:51.135Z,991.947
2018-01-20T02:25:54.178Z,991.9095
2018-01-20T02:26:51.368Z,991.8936
2018-01-20T02:27:52.441Z,991.9095
2018-01-20T02:28:51.471Z,991.896
2018-01-20T02:29:51.788Z,991.9095
2018-01-20T02:30:51.173Z,991.9216
2018-01-20T02:31:54.054Z,991.8179
2018-01-20T02:32:54.973Z,991.9116
2018-01-20T02:33:51.950Z,991.8907
2018-01-20T02:34:51.268Z,991.8463
2018-01-20T02:35:51.137Z,991.8421
2018-01-20T02:36:51.445Z,991.8525
2018-01-20T02:37:51.149Z,991.8376
2018-01-20T02:38:51.226Z,991.866
2018-01-20T02:39:51.170Z,991.8607
2018-01-20T02:40:51.191Z,991.8585
2018-01-20T02:41:51.150Z,991.8141
2018-01-20T02:42:51.402Z,991.8691
2018-01-20T02:43:51.421Z,991.8459
2018-01-20T02:44:51.223Z,991.8889
2018-01-20T02:45:51.253Z,991.879
2018-01-20T02:46:51.234Z,991.9256
2018-01-20T02:47:51.385Z,991.8811
2018-01-20T02:48:51.238Z,991.8936
2018-01-20T02:49:51.804Z,991.8527
2018-01-20T02:50:51.645Z,991.8583
2018-01-20T02:51:51.181Z,991.8806
2018-01-20T02:52:52.083Z,991.8177
2018-01-20T02:53:50.998Z,991.7975
2018-01-20T02:54:51.511Z,991.7898
2018-01-20T02:55:52.855Z,991.8391
2018-01-20T02:56:51.517Z,991.8338
2018-01-20T02:57:51.136Z,991.8229
2018-01-20T02:58:51.289Z,991.783
2018-01-20T02:59:51.348Z,991.7773
2018-01-20T03:00:51.328Z,991.7582
2018-01-20T03:01:51.312Z,991.7369
2018-01-20T03:02:51.348Z,991.712
2018-01-20T03:03:52.381Z,991.7696
2018-01-20T03:04:51.514Z,991.7415
2018-01-20T03:05:51.362Z,991.7639
2018-01-20T03:06:51.322Z,991.6676
2018-01-20T03:07:51.201Z,991.6389
2018-01-20T03:08:51.352Z,991.681
2018-01-20T03:09:51.320Z,991.6927
2018-01-20T03:10:51.175Z,991.6771
2018-01-20T03:11:51.501Z,991.6694
2018-01-20T03:12:51.661Z,991.7015
2018-01-20T03:13:51.280Z,991.6937
2018-01-20T03:14:51.556Z,991.6771
2018-01-20T03:15:51.913Z,991.6234
2018-01-20T03:16:51.279Z,991.6959
2018-01-20T03:17:52.821Z,991.6336
2018-01-20T03:18:51.332Z,991.6354
2018-01-20T03:19:51.487Z,991.6705
2018-01-20T03:20:52.533Z,991.6129
2018-01-20T03:21:51.236Z,991.6331
2018-01-20T03:22:51.228Z,991.5782
2018-01-20T03:23:51.491Z,991.5139
2018-01-20T03:24:51.052Z,991.6248
2018-01-20T03:25:51.096Z,991.6071
2018-01-20T03:26:51.733Z,991.5709
2018-01-20T03:27:51.570Z,991.5812
2018-01-20T03:28:52.004Z,991.5782
2018-01-20T03:29:51.856Z,991.5677
2018-01-20T03:30:51.444Z,991.5583
2018-01-20T03:31:51.542Z,991.5812
2018-01-20T03:32:51.268Z,991.5739
2018-01-20T03:33:51.902Z,991.5226
2018-01-20T03:34:51.612Z,991.5588
2018-01-20T03:35:51.772Z,991.5588
2018-01-20T03:36:51.205Z,991.5693
2018-01-20T03:37:52.706Z,991.5454
2018-01-20T03:38:51.867Z,991.5212
2018-01-20T03:39:51.481Z,991.6046
2018-01-20T03:40:51.271Z,991.5852
2018-01-20T03:41:51.519Z,991.5341
2018-01-20T03:42:51.384Z,991.5257
2018-01-20T03:43:51.307Z,991.4778
2018-01-20T03:44:51.548Z,991.4777
2018-01-20T03:45:51.465Z,991.4149
2018-01-20T03:46:51.169Z,991.431
2018-01-20T03:47:51.909Z,991.4891
2018-01-20T03:48:51.367Z,991.3978
2018-01-20T03:49:52.676Z,991.4397
2018-01-20T03:50:51.301Z,991.4807
2018-01-20T03:51:52.350Z,991.4133
2018-01-20T03:52:51.183Z,991.4532
2018-01-20T03:53:51.527Z,991.4183
2018-01-20T03:54:51.315Z,991.4574
2018-01-20T03:55:51.321Z,991.4018
2018-01-20T03:56:51.370Z,991.3965
2018-01-20T03:57:51.302Z,991.3624
2018-01-20T03:58:51.149Z,991.3635
2018-01-20T03:59:54.146Z,991.3624
2018-01-20T04:00:51.691Z,991.3448
2018-01-20T04:01:54.979Z,991.3535
2018-01-20T04:02:51.347Z,991.3759
2018-01-20T04:03:52.873Z,991.3147
2018-01-20T04:04:51.759Z,991.3479
2018-01-20T04:05:51.633Z,991.3883
2018-01-20T04:06:51.743Z,991.322
2018-01-20T04:07:51.658Z,991.4117
2018-01-20T04:08:51.725Z,991.4096
2018-01-20T04:09:51.390Z,991.3261
2018-01-20T04:10:51.987Z,991.2888
2018-01-20T04:11:52.493Z,991.3821
2018-01-20T04:12:51.698Z,991.3011
2018-01-20T04:13:51.194Z,991.3385
2018-01-20T04:14:51.308Z,991.3706
2018-01-20T04:15:51.718Z,991.3323
2018-01-20T04:16:51.345Z,991.3644
2018-01-20T04:17:51.584Z,991.3759
2018-01-20T04:18:51.445Z,991.3028
2018-01-20T04:19:51.296Z,991.3488
2018-01-20T04:20:51.803Z,991.2821
2018-01-20T04:21:51.072Z,991.3205
2018-01-20T04:22:51.079Z,991.3723
2018-01-20T04:23:51.076Z,991.334
2018-01-20T04:24:51.096Z,991.3221
2018-01-20T04:25:51.080Z,991.2883
2018-01-20T04:26:51.075Z,991.2732
2018-01-20T04:27:51.072Z,991.2597
2018-01-20T04:28:51.074Z,991.2587
2018-01-20T04:29:51.112Z,991.2504
2018-01-20T04:30:51.074Z,991.2805
2018-01-20T04:31:51.085Z,991.2752
2018-01-20T04:32:51.070Z,991.2358
2018-01-20T04:33:51.079Z,991.2701
2018-01-20T04:34:51.166Z,991.2504
2018-01-20T04:35:51.076Z,991.2567
2018-01-20T04:36:51.084Z,991.2327
2018-01-20T04:37:51.080Z,991.2401
2018-01-20T04:38:51.090Z,991.2421
2018-01-20T04:39:51.107Z,991.2235
2018-01-20T04:40:51.088Z,991.2062
2018-01-20T04:41:51.088Z,991.2068
2018-01-20T04:42:51.083Z,991.2504
2018-01-20T04:43:51.096Z,991.2204
2018-01-20T04:44:51.123Z,991.2039
2018-01-20T04:45:51.094Z,991.1752
2018-01-20T04:46:51.091Z,991.2218
2018-01-20T04:47:51.087Z,991.257
2018-01-20T04:48:51.090Z,991.2068
2018-01-20T04:49:51.112Z,991.2692
2018-01-20T04:50:51.147Z,991.1658
2018-01-20T04:51:51.109Z,991.2084
2018-01-20T04:52:51.093Z,991.1778
2018-01-20T04:53:51.091Z,991.2317
2018-01-20T04:54:51.120Z,991.1513
2018-01-20T04:55:51.099Z,991.1783
2018-01-20T04:56:51.104Z,991.1451
2018-01-20T04:57:51.099Z,991.1938
2018-01-20T04:58:51.098Z,991.1586
2018-01-20T04:59:51.125Z,991.2383
2018-01-20T05:00:51.102Z,991.1959
2018-01-20T05:01:51.106Z,991.2363
2018-01-20T05:02:51.106Z,991.1752
2018-01-20T05:03:51.116Z,991.226
2018-01-20T05:04:51.124Z,991.2011
2018-01-20T05:05:51.113Z,991.2156
2018-01-20T05:06:51.105Z,991.2592
2018-01-20T05:07:51.105Z,991.2383
2018-01-20T05:08:51.109Z,991.2546
2018-01-20T05:09:51.171Z,991.2456
2018-01-20T05:10:51.107Z,991.1844
2018-01-20T05:11:51.122Z,991.1738
2018-01-20T05:12:51.105Z,991.2198
2018-01-20T05:13:51.111Z,991.2031
2018-01-20T05:14:51.135Z,991.1699
2018-01-20T05:15:51.117Z,991.1461
2018-01-20T05:16:51.113Z,991.1752
2018-01-20T05:17:51.122Z,991.1783
2018-01-20T05:18:51.111Z,991.0974
2018-01-20T05:19:51.143Z,991.116
2018-01-20T05:20:51.114Z,991.1061
2018-01-20T05:21:51.116Z,991.1255
2018-01-20T05:22:51.126Z,991.0957
2018-01-20T05:23:51.109Z,991.1409
2018-01-20T05:24:51.145Z,991.0933
2018-01-20T05:25:51.123Z,991.1036
2018-01-20T05:26:51.139Z,991.0767
2018-01-20T05:27:51.120Z,991.0497
2018-01-20T05:28:51.128Z,991.0953
2018-01-20T05:29:51.141Z,991.0455
2018-01-20T05:30:51.133Z,991.074
2018-01-20T05:31:51.123Z,990.9762
2018-01-20T05:32:51.123Z,991.0446
2018-01-20T05:33:51.137Z,991.0176
2018-01-20T05:34:51.147Z,990.9896
2018-01-20T05:35:51.123Z,991.0352
2018-01-20T05:36:51.124Z,991.0301
2018-01-20T05:37:51.133Z,991.0227
2018-01-20T05:38:51.129Z,991.0244
2018-01-20T05:39:51.150Z,990.9771
2018-01-20T05:40:51.133Z,990.9612
2018-01-20T05:41:51.135Z,990.9668
2018-01-20T05:42:51.133Z,990.9999
2018-01-20T05:43:51.128Z,991.0508
2018-01-20T05:44:51.170Z,991.0145
2018-01-20T05:45:51.132Z,991.0083
2018-01-20T05:46:51.135Z,990.9539
2018-01-20T05:47:51.138Z,990.9626
2018-01-20T05:48:51.135Z,990.9851
2018-01-20T05:49:51.142Z,991.0452
2018-01-20T05:50:51.168Z,991.0114
2018-01-20T05:51:51.140Z,991.0162
2018-01-20T05:52:51.143Z,991.0576
2018-01-20T05:53:51.137Z,991.0062
2018-01-20T05:54:51.140Z,990.9927
2018-01-20T05:55:51.167Z,990.9446
2018-01-20T05:56:51.150Z,990.9933
2018-01-20T05:57:51.150Z,991.0316
2018-01-20T05:58:51.148Z,991.001
2018-01-20T05:59:51.145Z,991.0145
2018-01-20T06:00:51.171Z,991.0048
2018-01-20T06:01:51.147Z,990.9125
2018-01-20T06:02:51.154Z,990.9109
2018-01-20T06:03:51.156Z,990.9648
2018-01-20T06:04:51.154Z,990.944
2018-01-20T06:05:51.169Z,990.9294
2018-01-20T06:06:51.152Z,990.9709
2018-01-20T06:07:51.156Z,990.946
2018-01-20T06:08:51.155Z,990.9208
2018-01-20T06:09:51.154Z,990.8995
2018-01-20T06:10:51.177Z,990.9565
2018-01-20T06:11:51.146Z,990.9109
2018-01-20T06:12:51.146Z,990.9312
2018-01-20T06:13:51.164Z,990.934
2018-01-20T06:14:51.196Z,990.914
2018-01-20T06:15:51.193Z,990.8907
2018-01-20T06:16:51.158Z,990.9253
2018-01-20T06:17:51.151Z,990.9087
2018-01-20T06:18:51.160Z,990.8321
2018-01-20T06:19:51.160Z,990.9409
2018-01-20T06:20:51.199Z,990.8766
2018-01-20T06:21:51.165Z,990.9087
2018-01-20T06:22:51.164Z,990.9015
2018-01-20T06:23:51.175Z,990.8558
2018-01-20T06:24:51.182Z,990.8777
2018-01-20T06:25:51.198Z,990.9204
2018-01-20T06:26:51.166Z,990.8674
2018-01-20T06:27:51.173Z,990.8181
2018-01-20T06:28:51.190Z,990.8322
2018-01-20T06:29:51.167Z,990.8901
2018-01-20T06:30:51.260Z,990.9043
2018-01-20T06:31:51.171Z,990.8586
2018-01-20T06:32:51.165Z,990.8752
2018-01-20T06:33:51.186Z,990.8647
2018-01-20T06:34:51.172Z,990.8798
2018-01-20T06:35:51.190Z,990.8015
2018-01-20T06:36:51.174Z,990.8041
2018-01-20T06:37:51.174Z,990.7534
2018-01-20T06:38:51.173Z,990.7512
2018-01-20T06:39:51.185Z,990.7731
2018-01-20T06:40:51.203Z,990.7709
2018-01-20T06:41:51.169Z,990.7574
2018-01-20T06:42:51.175Z,990.7605
2018-01-20T06:43:51.182Z,990.7123
2018-01-20T06:44:51.195Z,990.731
2018-01-20T06:45:51.206Z,990.6677
2018-01-20T06:46:51.183Z,990.7216
2018-01-20T06:47:51.180Z,990.6946
2018-01-20T06:48:51.188Z,990.7351
2018-01-20T06:49:51.183Z,990.7102
2018-01-20T06:50:51.209Z,990.7008
2018-01-20T06:51:51.267Z,990.7173
2018-01-20T06:52:51.186Z,990.774
2018-01-20T06:53:51.187Z,990.7366
2018-01-20T06:54:51.184Z,990.7397
2018-01-20T06:55:51.214Z,990.7096
2018-01-20T06:56:51.189Z,990.7375
2018-01-20T06:57:51.187Z,990.7201
2018-01-20T06:58:51.196Z,990.7256
2018-01-20T06:59:51.184Z,990.7501
2018-01-20T07:00:51.217Z,990.7802
2018-01-20T07:01:51.195Z,990.7149
2018-01-20T07:02:51.194Z,990.7293
2018-01-20T07:03:51.192Z,990.7625
2018-01-20T07:04:51.237Z,990.725
2018-01-20T07:05:51.222Z,990.7437
2018-01-20T07:06:51.206Z,990.7489
2018-01-20T07:07:51.197Z,990.6576
2018-01-20T07:08:51.195Z,990.6981
2018-01-20T07:09:51.206Z,990.7355
2018-01-20T07:10:51.225Z,990.6741
2018-01-20T07:11:51.200Z,990.7092
2018-01-20T07:12:51.377Z,990.683
2018-01-20T07:13:51.203Z,990.6696
2018-01-20T07:14:51.211Z,990.6573
2018-01-20T07:15:51.234Z,990.6662
2018-01-20T07:16:51.201Z,990.673
2018-01-20T07:17:51.212Z,990.6138
2018-01-20T07:18:51.205Z,990.6882
2018-01-20T07:19:51.211Z,990.6561
2018-01-20T07:20:51.234Z,990.6904
2018-01-20T07:21:51.223Z,990.6913
2018-01-20T07:22:51.207Z,990.7452
2018-01-20T07:23:51.215Z,990.7673
2018-01-20T07:24:51.214Z,990.7382
2018-01-20T07:25:51.237Z,990.7452
2018-01-20T07:26:51.223Z,990.7474
2018-01-20T07:27:51.227Z,990.7869
2018-01-20T07:28:51.213Z,990.7787
2018-01-20T07:29:51.222Z,990.8026
2018-01-20T07:30:51.244Z,990.7704
2018-01-20T07:31:51.227Z,990.7774
2018-01-20T07:32:51.222Z,990.757
2018-01-20T07:33:51.223Z,990.8127
2018-01-20T07:34:51.226Z,990.8483
2018-01-20T07:35:51.242Z,990.8225
2018-01-20T07:36:51.225Z,990.8314
2018-01-20T07:37:51.229Z,990.8314
2018-01-20T07:38:51.228Z,990.8566
2018-01-20T07:39:51.228Z,990.8348
2018-01-20T07:40:51.251Z,990.8142
2018-01-20T07:41:51.232Z,990.8044
2018-01-20T07:42:51.219Z,990.8161
2018-01-20T07:43:51.228Z,990.7796
2018-01-20T07:44:51.228Z,990.8096
2018-01-20T07:45:51.252Z,990.8013
2018-01-20T07:46:51.245Z,990.7609
2018-01-20T07:47:51.231Z,990.8314
2018-01-20T07:48:51.246Z,990.791
2018-01-20T07:49:51.244Z,990.757
2018-01-20T07:50:51.264Z,990.791
2018-01-20T07:51:51.238Z,990.7891
2018-01-20T07:52:51.233Z,990.7901
2018-01-20T07:53:51.241Z,990.8192
2018-01-20T07:54:51.235Z,990.8225
2018-01-20T07:55:51.270Z,990.8449
2018-01-20T07:56:51.236Z,990.7816
2018-01-20T07:57:51.240Z,990.7798
2018-01-20T07:58:51.243Z,990.8104
2018-01-20T07:59:51.239Z,990.8082
2018-01-20T08:00:51.262Z,990.8104
2018-01-20T08:01:51.244Z,990.8187
2018-01-20T08:02:51.242Z,990.8508
2018-01-20T08:03:51.246Z,990.8487
2018-01-20T08:04:51.246Z,990.8402
2018-01-20T08:05:51.279Z,990.8752
2018-01-20T08:06:51.243Z,990.8793
2018-01-20T08:07:51.324Z,990.8477
2018-01-20T08:08:51.258Z,990.8382
2018-01-20T08:09:51.247Z,990.8455
2018-01-20T08:10:51.292Z,990.8787
2018-01-20T08:11:51.255Z,990.8973
2018-01-20T08:12:51.250Z,990.8979
2018-01-20T08:13:51.260Z,990.8652
2018-01-20T08:14:51.251Z,990.9062
2018-01-20T08:15:51.284Z,990.8949
2018-01-20T08:16:51.272Z,990.829
2018-01-20T08:17:51.601Z,990.8652
2018-01-20T08:18:51.259Z,990.8657
2018-01-20T08:19:51.267Z,990.8892
2018-01-20T08:20:51.283Z,990.8829
2018-01-20T08:21:51.457Z,990.8829
2018-01-20T08:22:51.262Z,990.8029
2018-01-20T08:23:51.259Z,990.8746
2018-01-20T08:24:51.261Z,990.8674
2018-01-20T08:25:51.291Z,990.7885
2018-01-20T08:26:51.262Z,990.8652
2018-01-20T08:27:51.263Z,990.8051
2018-01-20T08:28:51.269Z,990.8112
2018-01-20T08:29:51.273Z,990.7885
2018-01-20T08:30:51.290Z,990.8516
2018-01-20T08:31:51.334Z,990.859
2018-01-20T08:32:51.262Z,990.8516
2018-01-20T08:33:51.275Z,990.7429
2018-01-20T08:34:51.267Z,990.7557
2018-01-20T08:35:51.299Z,990.7737
2018-01-20T08:36:51.276Z,990.7625
2018-01-20T08:37:51.274Z,990.779
2018-01-20T08:38:51.286Z,990.7759
2018-01-20T08:39:51.279Z,990.7809
2018-01-20T08:40:51.282Z,990.793
2018-01-20T08:41:51.298Z,990.8179
2018-01-20T08:42:51.282Z,990.8109
2018-01-20T08:43:51.275Z,990.8041
2018-01-20T08:44:51.281Z,990.8394
2018-01-20T08:45:51.282Z,990.8455
2018-01-20T08:46:51.299Z,990.8839
2018-01-20T08:47:51.284Z,990.8912
2018-01-20T08:48:51.292Z,990.8627
2018-01-20T08:49:51.280Z,990.8771
2018-01-20T08:50:51.282Z,990.9124
2018-01-20T08:51:51.303Z,990.9207
2018-01-20T08:52:51.281Z,990.9207
2018-01-20T08:53:51.308Z,990.901
2018-01-20T08:54:51.299Z,990.875
2018-01-20T08:55:51.288Z,990.8376
2018-01-20T08:56:51.311Z,990.8719
2018-01-20T08:57:51.283Z,990.9041
2018-01-20T08:58:51.289Z,990.9071
2018-01-20T08:59:51.286Z,990.9249
2018-01-20T09:00:51.289Z,990.8937
2018-01-20T09:01:51.310Z,990.9363
2018-01-20T09:02:51.297Z,990.9041
2018-01-20T09:03:51.296Z,990.9219
2018-01-20T09:04:51.302Z,990.9219
2018-01-20T09:05:51.292Z,990.901
2018-01-20T09:06:51.343Z,990.9191
2018-01-20T09:07:51.301Z,990.9084
2018-01-20T09:08:51.303Z,990.9197
2018-01-20T09:09:51.296Z,990.8777
2018-01-20T09:10:51.302Z,990.9587
2018-01-20T09:11:51.316Z,990.9534
2018-01-20T09:12:51.298Z,990.9679
2018-01-20T09:13:51.308Z,990.9565
2018-01-20T09:14:51.292Z,990.9084
2018-01-20T09:15:51.305Z,990.9489
2018-01-20T09:16:51.382Z,990.9249
2018-01-20T09:17:51.304Z,990.887
2018-01-20T09:18:51.307Z,990.9461
2018-01-20T09:19:51.309Z,990.9326
2018-01-20T09:20:51.304Z,990.9578
2018-01-20T09:21:51.336Z,990.913
2018-01-20T09:22:51.308Z,990.9813
2018-01-20T09:23:51.313Z,990.9399
2018-01-20T09:24:51.307Z,990.9623
2018-01-20T09:25:51.316Z,991.0028
2018-01-20T09:26:51.340Z,990.9758
2018-01-20T09:27:51.319Z,990.9415
2018-01-20T09:28:51.314Z,990.8928
2018-01-20T09:29:51.314Z,990.8605
2018-01-20T09:30:51.311Z,990.8876
2018-01-20T09:31:51.343Z,990.8666
2018-01-20T09:32:51.317Z,990.8832
2018-01-20T09:33:51.323Z,990.824
2018-01-20T09:34:51.317Z,990.8624
2018-01-20T09:35:51.314Z,990.8188
2018-01-20T09:36:51.351Z,990.8593
2018-01-20T09:37:51.323Z,990.8054
2018-01-20T09:38:51.331Z,990.8137
2018-01-20T09:39:51.320Z,990.779
2018-01-20T09:40:51.317Z,990.8354
2018-01-20T09:41:51.345Z,990.8247
2018-01-20T09:42:51.321Z,990.8406
2018-01-20T09:43:51.327Z,990.8022
2018-01-20T09:44:51.331Z,990.7919
2018-01-20T09:45:51.330Z,990.8262
2018-01-20T09:46:51.350Z,990.8201
2018-01-20T09:47:51.326Z,990.8076
2018-01-20T09:48:51.341Z,990.8054
2018-01-20T09:49:51.341Z,990.7919
2018-01-20T09:50:51.338Z,990.8076
2018-01-20T09:51:51.353Z,990.794
2018-01-20T09:52:51.330Z,990.8398
2018-01-20T09:53:51.332Z,990.8044
2018-01-20T09:54:51.336Z,990.8409
2018-01-20T09:55:51.338Z,990.8336
2018-01-20T09:56:51.360Z,990.8336
2018-01-20T09:57:51.338Z,990.7753
2018-01-20T09:58:51.334Z,990.7888
2018-01-20T09:59:51.339Z,990.7219
2018-01-20T10:00:51.341Z,990.7302
2018-01-20T10:01:51.357Z,990.6974
2018-01-20T10:02:51.339Z,990.7168
2018-01-20T10:03:51.335Z,990.687
2018-01-20T10:04:51.337Z,990.725
2018-01-20T10:05:51.343Z,990.6974
2018-01-20T10:06:51.365Z,990.6747
2018-01-20T10:07:51.342Z,990.6509
2018-01-20T10:08:51.355Z,990.6974
2018-01-20T10:09:51.356Z,990.7032
2018-01-20T10:10:51.346Z,990.7192
2018-01-20T10:11:51.375Z,990.6929
2018-01-20T10:12:51.357Z,990.668
2018-01-20T10:13:51.360Z,990.6763
2018-01-20T10:14:51.355Z,990.6613
2018-01-20T10:15:51.348Z,990.6705
2018-01-20T10:16:51.367Z,990.671
2018-01-20T10:17:51.357Z,990.6358
2018-01-20T10:18:51.353Z,990.6353
2018-01-20T10:19:51.356Z,990.5656
2018-01-20T10:20:51.349Z,990.5879
2018-01-20T10:21:51.390Z,990.6389
2018-01-20T10:22:51.362Z,990.603
2018-01-20T10:23:51.355Z,990.5953
2018-01-20T10:24:51.354Z,990.5828
2018-01-20T10:25:51.360Z,990.5287
2018-01-20T10:26:51.385Z,990.5461
2018-01-20T10:27:51.358Z,990.5754
2018-01-20T10:28:51.383Z,990.5879
2018-01-20T10:29:51.370Z,990.5941
2018-01-20T10:30:51.371Z,990.534
2018-01-20T10:31:51.391Z,990.5131
2018-01-20T10:32:51.374Z,990.484
2018-01-20T10:33:51.363Z,990.5156
2018-01-20T10:34:51.373Z,990.4815
2018-01-20T10:35:51.362Z,990.4637
2018-01-20T10:36:51.434Z,990.499
2018-01-20T10:37:51.372Z,990.4815
2018-01-20T10:38:51.400Z,990.414
2018-01-20T10:39:51.850Z,990.4006
2018-01-20T10:40:51.365Z,990.4196
2018-01-20T10:41:51.402Z,990.4503
2018-01-20T10:42:51.367Z,990.4532
2018-01-20T10:43:51.373Z,990.3858
2018-01-20T10:44:51.371Z,990.4083
2018-01-20T10:45:51.377Z,990.4084
2018-01-20T10:46:51.398Z,990.3735
2018-01-20T10:47:51.377Z,990.3871
2018-01-20T10:48:51.374Z,990.3466
2018-01-20T10:49:51.380Z,990.3085
2018-01-20T10:50:51.372Z,990.2521
2018-01-20T10:51:51.398Z,990.262
2018-01-20T10:52:51.385Z,990.3138
2018-01-20T10:53:51.378Z,990.2704
2018-01-20T10:54:51.500Z,990.3047
2018-01-20T10:55:51.389Z,990.2695
2018-01-20T10:56:51.406Z,990.2779
2018-01-20T10:57:51.391Z,990.2268
2018-01-20T10:58:51.386Z,990.1711
2018-01-20T10:59:51.396Z,990.179
2018-01-20T11:00:51.381Z,990.1765
2018-01-20T11:01:51.418Z,990.2
2018-01-20T11:02:51.389Z,990.1842
2018-01-20T11:03:51.384Z,990.1339
2018-01-20T11:04:51.403Z,990.1443
2018-01-20T11:05:51.390Z,990.1542
2018-01-20T11:06:51.413Z,990.142
2018-01-20T11:07:51.386Z,990.0979
2018-01-20T11:08:51.411Z,990.1037
2018-01-20T11:09:51.393Z,990.0846
2018-01-20T11:10:51.392Z,990.0904
2018-01-20T11:11:53.961Z,990.0463
2018-01-20T11:12:51.389Z,990.0873
2018-01-20T11:13:51.400Z,990.0154
2018-01-20T11:14:51.397Z,990.0259
2018-01-20T11:15:51.706Z,990.0237
2018-01-20T11:16:51.422Z,990.0176
2018-01-20T11:17:51.395Z,989.9901
2018-01-20T11:18:51.400Z,989.9554
2018-01-20T11:19:51.403Z,989.9854
2018-01-20T11:20:51.420Z,989.9576
2018-01-20T11:21:51.420Z,989.9285
2018-01-20T11:22:51.401Z,989.8661
2018-01-20T11:23:51.609Z,989.8656
2018-01-20T11:24:51.408Z,989.8399
2018-01-20T11:25:51.423Z,989.8251
2018-01-20T11:26:51.521Z,989.7734
2018-01-20T11:27:51.406Z,989.8033
2018-01-20T11:28:51.411Z,989.726
2018-01-20T11:29:51.405Z,989.7943
2018-01-20T11:30:51.414Z,989.7687
2018-01-20T11:31:51.435Z,989.7935
2018-01-20T11:32:51.404Z,989.717
2018-01-20T11:33:51.423Z,989.7269
2018-01-20T11:34:51.416Z,989.7177
2018-01-20T11:35:51.417Z,989.6803
2018-01-20T11:36:51.441Z,989.7147
2018-01-20T11:37:51.417Z,989.6767
2018-01-20T11:38:51.414Z,989.669
2018-01-20T11:39:51.416Z,989.6663
2018-01-20T11:40:51.416Z,989.642
2018-01-20T11:41:51.441Z,989.5671
2018-01-20T11:42:51.413Z,989.5988
2018-01-20T11:43:51.421Z,989.6233
2018-01-20T11:44:51.416Z,989.5096
2018-01-20T11:45:51.415Z,989.5284
2018-01-20T11:46:51.438Z,989.5258